createdAt,value
2019-04-03T00:01:16.562Z,55.70
2019-04-03T00:04:06.695Z,55.70
2019-04-03T00:06:56.752Z,55.60
2019-04-03T00:09:46.475Z,55.60
2019-04-03T00:12:36.449Z,55.40
2019-04-03T00:15:26.137Z,55.40
2019-04-03T00:18:16.759Z,55.40
2019-04-03T00:21:06.844Z,55.60
2019-04-03T00:23:57.024Z,55.60
2019-04-03T00:26:45.795Z,55.60
2019-04-03T00:29:35.178Z,55.50
2019-04-03T00:32:24.160Z,55.60
2019-04-03T00:35:14.305Z,55.80
2019-04-03T00:38:04.078Z,55.60
2019-04-03T00:40:54.423Z,55.80
2019-04-03T00:43:44.103Z,55.90
2019-04-03T00:46:33.751Z,56.00
2019-04-03T00:49:25.697Z,56.10
2019-04-03T00:52:13.778Z,56.20
2019-04-03T00:55:04.395Z,56.20
2019-04-03T00:57:54.783Z,56.20
2019-04-03T01:00:45.448Z,56.30
2019-04-03T01:03:35.355Z,56.20
2019-04-03T01:06:25.129Z,57.10
2019-04-03T01:09:14.464Z,56.60
2019-04-03T01:12:03.767Z,56.60
2019-04-03T01:14:53.504Z,56.70
2019-04-03T01:17:43.284Z,56.80
2019-04-03T01:20:33.067Z,56.70
2019-04-03T01:23:22.703Z,57.40
2019-04-03T01:26:12.668Z,56.80
2019-04-03T01:29:02.848Z,56.70
2019-04-03T01:31:52.905Z,56.80
2019-04-03T01:34:42.694Z,56.60
2019-04-03T01:37:31.820Z,56.60
2019-04-03T01:40:27.196Z,56.70
2019-04-03T01:43:16.076Z,56.90
2019-04-03T01:46:05.395Z,56.90
2019-04-03T01:48:55.065Z,57.10
2019-04-03T01:51:45.014Z,57.10
2019-04-03T01:54:35.230Z,57.20
2019-04-03T01:57:25.278Z,57.30
2019-04-03T02:00:15.018Z,57.20
2019-04-03T02:03:04.963Z,57.20
2019-04-03T02:05:54.948Z,57.20
2019-04-03T02:08:45.299Z,57.30
2019-04-03T02:11:35.583Z,57.10
2019-04-03T02:14:25.515Z,57.10
2019-04-03T02:17:15.465Z,57.40
2019-04-03T02:20:05.732Z,57.70
2019-04-03T02:22:55.631Z,57.90
2019-04-03T02:25:45.321Z,57.90
2019-04-03T02:28:35.275Z,58.10
2019-04-03T02:31:25.301Z,58.00
2019-04-03T02:34:15.166Z,58.20
2019-04-03T02:37:04.897Z,59.30
2019-04-03T02:39:54.217Z,59.00
2019-04-03T02:42:43.578Z,58.50
2019-04-03T02:45:33.770Z,58.70
2019-04-03T02:48:23.230Z,58.50
2019-04-03T02:51:13.028Z,58.80
2019-04-03T02:54:03.225Z,59.10
2019-04-03T02:56:52.541Z,59.20
2019-04-03T02:59:42.332Z,59.30
2019-04-03T03:02:31.811Z,59.00
2019-04-03T03:05:27.020Z,58.90
2019-04-03T03:08:14.645Z,59.00
2019-04-03T03:11:04.518Z,59.40
2019-04-03T03:13:55.035Z,59.40
2019-04-03T03:16:49.294Z,59.40
2019-04-03T03:19:36.950Z,59.60
2019-04-03T03:22:27.943Z,59.40
2019-04-03T03:25:17.934Z,59.40
2019-04-03T03:28:08.780Z,59.10
2019-04-03T03:31:03.067Z,59.00
2019-04-03T03:33:50.248Z,59.10
2019-04-03T03:36:41.418Z,59.50
2019-04-03T03:39:32.288Z,59.10
2019-04-03T03:42:21.926Z,59.30
2019-04-03T03:45:11.731Z,59.20
2019-04-03T03:48:01.739Z,59.30
2019-04-03T03:50:55.630Z,59.40
2019-04-03T03:53:45.793Z,59.40
2019-04-03T03:56:34.973Z,59.50
2019-04-03T03:59:25.296Z,59.50
2019-04-03T04:02:14.699Z,59.80
2019-04-03T04:05:09.468Z,59.90
2019-04-03T04:07:56.049Z,60.00
2019-04-03T04:10:46.007Z,60.00
2019-04-03T04:13:36.001Z,60.00
2019-04-03T04:16:25.797Z,60.20
2019-04-03T04:19:15.901Z,60.40
2019-04-03T04:22:05.377Z,60.40
2019-04-03T04:24:54.848Z,60.30
2019-04-03T04:27:44.376Z,60.30
2019-04-03T04:30:34.992Z,60.60
2019-04-03T04:33:25.168Z,60.40
2019-04-03T04:36:15.402Z,60.40
2019-04-03T04:39:06.889Z,60.40
2019-04-03T04:41:56.640Z,60.40
2019-04-03T04:44:46.598Z,60.40
2019-04-03T04:47:36.420Z,60.40
2019-04-03T04:50:26.215Z,60.50
2019-04-03T04:53:19.306Z,60.50
2019-04-03T04:56:08.692Z,60.60
2019-04-03T04:58:58.242Z,60.60
2019-04-03T05:01:49.154Z,60.90
2019-04-03T05:04:39.849Z,61.10
2019-04-03T05:07:28.873Z,61.10
2019-04-03T05:10:20.059Z,61.40
2019-04-03T05:13:09.067Z,61.30
2019-04-03T05:15:59.831Z,61.40
2019-04-03T05:18:49.492Z,61.60
2019-04-03T05:21:39.378Z,61.60
2019-04-03T05:24:28.859Z,61.70
2019-04-03T05:27:19.956Z,61.90
2019-04-03T05:30:09.406Z,62.20
2019-04-03T05:32:59.222Z,62.40
2019-04-03T05:35:49.114Z,62.50
2019-04-03T05:38:38.953Z,62.60
2019-04-03T05:41:28.781Z,62.50
2019-04-03T05:44:18.963Z,62.60
2019-04-03T05:47:08.569Z,62.70
2019-04-03T05:49:58.181Z,63.10
2019-04-03T05:52:48.307Z,63.40
2019-04-03T05:55:40.397Z,63.70
2019-04-03T05:58:28.978Z,64.10
2019-04-03T06:01:19.077Z,64.50
2019-04-03T06:04:09.906Z,64.90
2019-04-03T06:07:00.275Z,65.10
2019-04-03T06:09:49.453Z,65.20
2019-04-03T06:12:38.745Z,65.40
2019-04-03T06:15:29.015Z,65.90
2019-04-03T06:18:18.917Z,66.70
2019-04-03T06:21:08.668Z,67.50
2019-04-03T07:59:35.874Z,60.20
2019-04-03T08:02:27.242Z,64.80
2019-04-03T08:05:17.743Z,67.20
2019-04-03T08:08:10.573Z,71.80
2019-04-03T08:11:01.974Z,72.60
2019-04-03T08:13:54.997Z,77.00
2019-04-03T08:16:47.502Z,76.30
2019-04-03T08:19:38.138Z,78.60
2019-04-03T08:22:28.966Z,79.90
2019-04-03T08:25:20.695Z,78.40
2019-04-03T08:28:11.978Z,76.20
2019-04-03T08:31:03.454Z,74.00
2019-04-03T08:33:54.476Z,72.70
2019-04-03T08:36:44.873Z,72.70
2019-04-03T08:39:35.588Z,74.50
2019-04-03T08:42:28.077Z,75.50
2019-04-03T08:45:21.139Z,75.70
2019-04-03T08:48:11.353Z,76.10
2019-04-03T08:51:03.355Z,76.40
2019-04-03T08:53:54.934Z,76.10
2019-04-03T08:56:48.330Z,75.60
2019-04-03T08:59:37.986Z,75.50
2019-04-03T09:02:29.127Z,74.40
2019-04-03T09:05:20.122Z,70.70
2019-04-03T09:08:12.274Z,69.10
2019-04-03T09:11:05.108Z,68.70
2019-04-03T09:13:56.398Z,68.90
2019-04-03T09:16:47.762Z,68.80
2019-04-03T09:19:40.626Z,68.30
2019-04-03T09:22:31.247Z,66.60
2019-04-03T09:25:22.610Z,65.60
2019-04-03T09:28:13.741Z,64.20
2019-04-03T09:31:04.550Z,62.70
2019-04-03T09:33:57.006Z,61.80
2019-04-03T09:36:48.766Z,61.40
2019-04-03T09:39:39.555Z,60.80
2019-04-03T09:42:30.960Z,60.00
2019-04-03T09:45:22.591Z,59.10
2019-04-03T09:48:14.217Z,57.50
2019-04-03T09:51:04.688Z,56.80
2019-04-03T09:53:57.142Z,56.40
2019-04-03T09:56:59.332Z,56.00
2019-04-03T09:59:38.754Z,55.70
2019-04-03T10:02:29.376Z,55.30
2019-04-03T10:05:20.667Z,55.00
2019-04-03T10:08:11.975Z,53.50
2019-04-03T10:11:02.471Z,53.00
2019-04-03T10:13:54.941Z,52.30
2019-04-03T10:16:45.419Z,51.80
2019-04-03T10:19:36.729Z,51.50
2019-04-03T10:22:27.190Z,51.10
2019-04-03T10:25:18.719Z,50.50
2019-04-03T10:28:10.208Z,49.30
2019-04-03T10:31:01.521Z,48.70
2019-04-03T10:33:51.988Z,49.30
2019-04-03T10:36:43.811Z,48.60
2019-04-03T10:39:35.165Z,48.10
2019-04-03T10:42:26.175Z,47.90
2019-04-03T10:45:16.754Z,47.80
2019-04-03T10:48:08.145Z,47.80
2019-04-03T10:50:59.621Z,47.60
2019-04-03T10:53:51.524Z,47.30
2019-04-03T10:56:43.234Z,46.80
2019-04-03T10:59:34.784Z,46.30
2019-04-03T11:02:25.334Z,45.80
2019-04-03T11:05:17.352Z,45.10
2019-04-03T11:08:07.540Z,44.60
2019-04-03T11:10:58.961Z,44.30
2019-04-03T11:13:49.746Z,44.10
2019-04-03T11:16:40.626Z,43.90
2019-04-03T11:19:32.800Z,43.30
2019-04-03T11:22:23.849Z,43.10
2019-04-03T11:25:16.261Z,42.90
2019-04-03T11:28:06.914Z,42.70
2019-04-03T11:31:01.254Z,42.60
2019-04-03T11:33:51.245Z,42.60
2019-04-03T11:36:42.852Z,42.40
2019-04-03T11:39:37.161Z,42.30
2019-04-03T11:42:29.202Z,42.10
2019-04-03T11:45:19.276Z,42.10
2019-04-03T11:48:10.220Z,41.80
2019-04-03T11:51:00.667Z,41.70
2019-04-03T11:53:51.153Z,41.40
2019-04-03T11:56:44.908Z,41.00
2019-04-03T11:59:34.770Z,41.60
2019-04-03T12:02:25.289Z,41.00
2019-04-03T12:05:20.778Z,40.90
2019-04-03T12:08:12.349Z,41.00
2019-04-03T12:11:05.433Z,41.20
2019-04-03T12:13:55.533Z,41.10
2019-04-03T12:16:46.443Z,41.20
2019-04-03T12:19:37.826Z,41.30
2019-04-03T12:22:31.249Z,41.30
2019-04-03T12:25:22.651Z,41.30
2019-04-03T12:28:17.758Z,41.50
2019-04-03T12:31:23.722Z,41.40
2019-04-03T12:34:15.193Z,41.50
2019-04-03T12:37:05.407Z,41.60
2019-04-03T12:40:00.227Z,41.70
2019-04-03T12:42:50.042Z,41.60
2019-04-03T12:45:41.185Z,41.60
2019-04-03T12:48:33.294Z,41.60
2019-04-03T12:51:25.379Z,41.40
2019-04-03T12:54:19.840Z,41.50
2019-04-03T12:57:09.083Z,41.60
2019-04-03T13:00:00.465Z,41.70
2019-04-03T13:02:52.922Z,41.80
2019-04-03T13:05:45.347Z,41.80
2019-04-03T13:08:40.619Z,42.00
2019-04-03T13:11:33.027Z,42.20
2019-04-03T13:14:26.439Z,42.30
2019-04-03T13:17:15.658Z,42.30
2019-04-03T13:20:07.583Z,42.40
2019-04-03T13:22:59.402Z,42.50
2019-04-03T13:25:53.000Z,42.60
2019-04-03T13:28:43.329Z,42.70
2019-04-03T13:31:35.415Z,42.80
2019-04-03T13:34:26.932Z,42.90
2019-04-03T13:37:17.848Z,42.90
2019-04-03T13:40:11.441Z,43.00
2019-04-03T13:43:02.918Z,43.10
2019-04-03T13:45:54.020Z,43.30
2019-04-03T13:48:45.224Z,43.40
2019-04-03T13:51:36.266Z,43.40
2019-04-03T13:54:27.255Z,43.70
2019-04-03T13:57:18.291Z,43.60
2019-04-03T14:00:20.595Z,43.60
2019-04-03T14:03:03.031Z,43.60
2019-04-03T14:05:53.436Z,43.50
2019-04-03T14:08:45.602Z,43.70
2019-04-03T14:11:37.714Z,43.70
2019-04-03T14:14:28.404Z,44.00
2019-04-03T14:17:19.375Z,43.90
2019-04-03T14:20:13.203Z,43.90
2019-04-03T14:23:04.782Z,43.90
2019-04-03T14:26:04.092Z,43.80
2019-04-03T14:28:46.692Z,43.80
2019-04-03T14:31:38.206Z,43.60
2019-04-03T14:34:30.679Z,43.60
2019-04-03T14:37:25.829Z,43.60
2019-04-03T14:40:13.623Z,43.70
2019-04-03T14:43:04.280Z,43.70
2019-04-03T14:45:55.229Z,43.60
2019-04-03T14:48:46.029Z,43.60
2019-04-03T14:51:37.651Z,43.60
2019-04-03T14:54:30.468Z,43.60
2019-04-03T14:57:23.157Z,43.50
2019-04-03T15:00:30.851Z,43.50
2019-04-03T15:03:05.413Z,43.50
2019-04-03T15:05:57.113Z,43.50
2019-04-03T15:08:48.023Z,43.50
2019-04-03T15:11:38.737Z,43.70
2019-04-03T15:14:30.025Z,43.70
2019-04-03T15:17:21.405Z,43.70
2019-04-03T15:20:12.707Z,43.60
2019-04-03T15:23:04.922Z,43.80
2019-04-03T15:25:55.116Z,43.80
2019-04-03T15:28:45.558Z,44.20
2019-04-03T15:31:36.939Z,43.90
2019-04-03T15:34:28.829Z,43.80
2019-04-03T15:37:19.900Z,43.90
2019-04-03T15:40:11.815Z,44.30
2019-04-03T15:43:03.649Z,43.90
2019-04-03T15:45:56.613Z,44.00
2019-04-03T15:48:47.744Z,43.90
2019-04-03T15:51:40.055Z,44.10
2019-04-03T15:54:33.044Z,44.10
2019-04-03T15:57:23.581Z,44.10
2019-04-03T16:00:15.955Z,43.90
2019-04-03T16:03:08.487Z,44.10
2019-04-03T16:06:03.494Z,44.10
2019-04-03T16:08:53.575Z,44.10
2019-04-03T16:11:43.849Z,44.20
2019-04-03T16:14:35.125Z,44.10
2019-04-03T16:17:25.832Z,44.20
2019-04-03T16:20:17.870Z,44.20
2019-04-03T16:23:09.198Z,44.20
2019-04-03T16:26:00.320Z,44.40
2019-04-03T16:28:51.601Z,44.80
2019-04-03T16:31:42.964Z,44.90
2019-04-03T16:34:33.932Z,45.00
2019-04-03T16:37:24.617Z,44.90
2019-04-03T16:40:16.038Z,45.30
2019-04-03T16:43:06.504Z,45.00
2019-04-03T16:45:56.999Z,45.00
2019-04-03T16:48:49.895Z,45.30
2019-04-03T16:51:40.573Z,46.00
2019-04-03T16:54:33.618Z,45.70
2019-04-03T16:57:24.350Z,46.30
2019-04-03T17:00:16.502Z,46.30
2019-04-03T17:03:08.016Z,46.20
2019-04-03T17:05:59.822Z,46.00
2019-04-03T17:08:51.034Z,46.60
2019-04-03T17:11:44.908Z,46.20
2019-04-03T17:14:34.445Z,46.40
2019-04-03T17:17:25.934Z,46.60
2019-04-03T17:20:18.515Z,46.20
2019-04-03T17:23:12.283Z,46.20
2019-04-03T17:26:02.129Z,46.10
2019-04-03T17:29:02.492Z,46.10
2019-04-03T17:31:45.850Z,46.10
2019-04-03T17:34:39.969Z,46.10
2019-04-03T17:37:30.915Z,46.40
2019-04-03T17:40:22.094Z,46.30
2019-04-03T17:43:13.624Z,46.10
2019-04-03T17:46:05.962Z,46.30
2019-04-03T17:48:57.970Z,46.20
2019-04-03T17:51:49.397Z,46.20
2019-04-03T17:54:40.827Z,46.40
2019-04-03T17:57:31.436Z,46.30
2019-04-03T18:00:24.012Z,46.50
2019-04-03T18:03:15.686Z,46.30
2019-04-03T18:06:18.515Z,46.40
2019-04-03T18:09:10.598Z,46.30
2019-04-03T18:12:01.523Z,46.50
2019-04-03T18:14:52.930Z,46.80
2019-04-03T18:17:45.965Z,46.60
2019-04-03T18:20:38.868Z,46.70
2019-04-03T18:23:29.507Z,46.70
2019-04-03T18:26:19.854Z,46.70
2019-04-03T18:29:13.843Z,46.90
2019-04-03T18:32:05.917Z,46.90
2019-04-03T18:34:59.841Z,47.10
2019-04-03T18:37:51.057Z,47.20
2019-04-03T18:40:45.568Z,47.10
2019-04-03T18:43:39.689Z,47.30
2019-04-03T18:46:34.375Z,47.10
2019-04-03T18:49:24.399Z,47.60
2019-04-03T18:52:15.337Z,47.40
2019-04-03T18:55:06.582Z,47.60
2019-04-03T18:57:58.698Z,48.00
2019-04-03T19:00:49.471Z,48.30
2019-04-03T19:03:44.217Z,48.20
2019-04-03T19:06:36.124Z,47.80
2019-04-03T19:09:31.309Z,47.80
2019-04-03T19:12:35.069Z,48.00
2019-04-03T19:15:16.006Z,47.90
2019-04-03T19:18:18.987Z,48.00
2019-04-03T19:21:01.103Z,48.20
2019-04-03T19:23:53.690Z,48.10
2019-04-03T19:26:43.589Z,48.20
2019-04-03T19:29:35.767Z,48.70
2019-04-03T19:32:28.779Z,48.50
2019-04-03T19:35:19.323Z,48.80
2019-04-03T19:38:13.384Z,48.90
2019-04-03T19:41:04.700Z,48.70
2019-04-03T19:43:55.320Z,48.90
2019-04-03T19:46:46.182Z,48.80
2019-04-03T19:49:40.207Z,49.10
2019-04-03T19:52:32.936Z,49.00
2019-04-03T19:55:24.467Z,49.10
2019-04-03T19:58:18.335Z,49.00
2019-04-03T20:01:11.642Z,49.30
2019-04-03T20:04:02.325Z,49.60
2019-04-03T20:06:54.767Z,50.30
2019-04-03T20:09:45.392Z,49.80
2019-04-03T20:12:37.708Z,50.00
2019-04-03T20:15:28.145Z,50.70
2019-04-03T20:18:18.728Z,50.80
2019-04-03T20:21:10.382Z,50.40
2019-04-03T20:24:01.509Z,50.70
2019-04-03T20:26:52.787Z,50.30
2019-04-03T20:29:44.278Z,50.40
2019-04-03T20:32:35.779Z,50.20
2019-04-03T20:35:26.402Z,50.40
2019-04-03T20:38:17.546Z,50.10
2019-04-03T20:41:08.567Z,50.30
2019-04-03T20:43:58.916Z,50.10
2019-04-03T20:46:49.337Z,50.40
2019-04-03T20:49:40.434Z,50.40
2019-04-03T20:52:31.043Z,50.40
2019-04-03T20:55:24.759Z,50.10
2019-04-03T20:58:18.012Z,50.10
2019-04-03T21:01:10.349Z,50.20
2019-04-03T21:04:05.055Z,50.50
2019-04-03T21:06:59.059Z,50.50
2019-04-03T21:09:56.580Z,50.50
2019-04-03T21:12:48.166Z,50.30
2019-04-03T21:15:39.319Z,50.20
2019-04-03T21:18:30.282Z,50.20
2019-04-03T21:21:21.584Z,50.30
2019-04-03T21:24:12.564Z,50.60
2019-04-03T21:27:02.936Z,50.40
2019-04-03T21:29:54.642Z,50.60
2019-04-03T21:32:45.996Z,50.80
2019-04-03T21:35:36.409Z,50.30
2019-04-03T21:38:26.537Z,50.30
2019-04-03T21:41:20.484Z,51.70
2019-04-03T21:44:09.205Z,50.60
2019-04-03T21:47:00.507Z,50.80
2019-04-03T21:49:51.710Z,50.60
2019-04-03T21:52:41.905Z,50.70
2019-04-03T21:55:34.635Z,50.80
2019-04-03T21:58:25.283Z,50.80
2019-04-03T22:01:24.937Z,50.90
2019-04-03T22:04:15.644Z,50.90
2019-04-03T22:07:07.621Z,51.20
2019-04-03T22:09:59.967Z,51.30
2019-04-03T22:12:50.927Z,51.40
2019-04-03T22:15:41.986Z,51.30
2019-04-03T22:18:33.438Z,51.20
2019-04-03T22:21:24.818Z,52.00
2019-04-03T22:24:15.915Z,50.90
2019-04-03T22:27:06.987Z,51.50
2019-04-03T22:29:57.728Z,52.10
2019-04-03T22:32:48.696Z,51.20
2019-04-03T22:35:40.087Z,51.30
2019-04-03T22:38:31.439Z,51.00
2019-04-03T22:41:21.906Z,51.40
2019-04-03T22:44:15.030Z,51.20
2019-04-03T22:47:05.533Z,51.30
2019-04-03T22:49:56.630Z,51.30
2019-04-03T22:52:47.018Z,51.50
2019-04-03T22:55:38.468Z,51.50
2019-04-03T22:58:29.481Z,51.60
2019-04-03T23:01:21.300Z,51.20
2019-04-03T23:04:13.762Z,51.30
2019-04-03T23:07:04.829Z,51.60
2019-04-03T23:09:56.769Z,51.60
2019-04-03T23:12:47.075Z,51.50
2019-04-03T23:15:39.405Z,51.60
2019-04-03T23:18:30.971Z,51.60
2019-04-03T23:21:23.860Z,51.50
2019-04-03T23:24:15.572Z,52.20
2019-04-03T23:27:06.759Z,51.70
2019-04-03T23:29:57.722Z,51.60
2019-04-03T23:32:48.969Z,51.60
2019-04-03T23:35:40.026Z,51.50
2019-04-03T23:38:30.587Z,51.70
2019-04-03T23:41:20.653Z,51.60
2019-04-03T23:44:11.818Z,51.80
2019-04-03T23:47:03.117Z,51.60
2019-04-03T23:49:54.312Z,51.90
2019-04-03T23:52:45.412Z,51.90
2019-04-03T23:55:36.791Z,52.30
2019-04-03T23:58:29.013Z,52.60
